sensor_id;sensor_type;location;lat;lon;timestamp;temperature;humidity
19085;DHT22;9675;51.538;6.728;2023-02-01T00:01:31;5.80;99.90
19085;DHT22;9675;51.538;6.728;2023-02-01T00:03:59;5.80;99.90
19085;DHT22;9675;51.538;6.728;2023-02-01T00:06:26;5.80;99.90
19085;DHT22;9675;51.538;6.728;2023-02-01T00:08:53;5.80;99.90
19085;DHT22;9675;51.538;6.728;2023-02-01T00:11:22;5.80;99.90
19085;DHT22;9675;51.538;6.728;2023-02-01T00:13:50;5.80;99.90
19085;DHT22;9675;51.538;6.728;2023-02-01T00:16:20;5.80;99.90
19085;DHT22;9675;51.538;6.728;2023-02-01T00:18:50;5.80;99.90
19085;DHT22;9675;51.538;6.728;2023-02-01T00:21:20;5.70;99.90
19085;DHT22;9675;51.538;6.728;2023-02-01T00:23:47;5.70;99.90
19085;DHT22;9675;51.538;6.728;2023-02-01T00:26:17;5.70;99.90
19085;DHT22;9675;51.538;6.728;2023-02-01T00:28:46;5.70;99.90
19085;DHT22;9675;51.538;6.728;2023-02-01T00:31:14;5.70;99.90
19085;DHT22;9675;51.538;6.728;2023-02-01T00:33:42;5.70;99.90
19085;DHT22;9675;51.538;6.728;2023-02-01T00:36:13;5.70;99.90
19085;DHT22;9675;51.538;6.728;2023-02-01T00:38:40;5.70;99.90
19085;DHT22;9675;51.538;6.728;2023-02-01T00:41:11;5.70;99.90
19085;DHT22;9675;51.538;6.728;2023-02-01T00:43:39;5.70;99.90
19085;DHT22;9675;51.538;6.728;2023-02-01T00:46:07;5.70;99.90
19085;DHT22;9675;51.538;6.728;2023-02-01T00:48:34;5.80;99.90
19085;DHT22;9675;51.538;6.728;2023-02-01T00:51:04;5.70;99.90
19085;DHT22;9675;51.538;6.728;2023-02-01T00:53:33;5.70;99.90
19085;DHT22;9675;51.538;6.728;2023-02-01T00:56:01;5.70;99.90
19085;DHT22;9675;51.538;6.728;2023-02-01T00:58:29;5.70;99.90
19085;DHT22;9675;51.538;6.728;2023-02-01T01:01:02;5.70;99.90
19085;DHT22;9675;51.538;6.728;2023-02-01T01:03:30;5.70;99.90
19085;DHT22;9675;51.538;6.728;2023-02-01T01:06:01;5.70;99.90
19085;DHT22;9675;51.538;6.728;2023-02-01T01:08:31;5.70;99.90
19085;DHT22;9675;51.538;6.728;2023-02-01T01:10:58;5.70;99.90
19085;DHT22;9675;51.538;6.728;2023-02-01T01:13:25;5.70;99.90
19085;DHT22;9675;51.538;6.728;2023-02-01T01:15:52;5.70;99.90
19085;DHT22;9675;51.538;6.728;2023-02-01T01:18:19;5.80;99.90
19085;DHT22;9675;51.538;6.728;2023-02-01T01:20:47;5.70;99.90
19085;DHT22;9675;51.538;6.728;2023-02-01T01:23:16;5.70;99.90
19085;DHT22;9675;51.538;6.728;2023-02-01T01:25:43;5.70;99.90
19085;DHT22;9675;51.538;6.728;2023-02-01T01:28:10;5.70;99.90
19085;DHT22;9675;51.538;6.728;2023-02-01T01:30:37;5.80;99.90
19085;DHT22;9675;51.538;6.728;2023-02-01T01:33:04;5.80;99.90
19085;DHT22;9675;51.538;6.728;2023-02-01T01:35:32;5.70;99.90
19085;DHT22;9675;51.538;6.728;2023-02-01T01:38:00;5.70;99.90
19085;DHT22;9675;51.538;6.728;2023-02-01T01:40:32;5.80;99.90
19085;DHT22;9675;51.538;6.728;2023-02-01T01:42:59;5.80;99.90
19085;DHT22;9675;51.538;6.728;2023-02-01T01:45:28;5.70;99.90
19085;DHT22;9675;51.538;6.728;2023-02-01T01:47:57;5.80;99.90
19085;DHT22;9675;51.538;6.728;2023-02-01T01:50:29;5.80;99.90
19085;DHT22;9675;51.538;6.728;2023-02-01T01:53:02;5.70;99.90
19085;DHT22;9675;51.538;6.728;2023-02-01T01:55:37;5.70;99.90
19085;DHT22;9675;51.538;6.728;2023-02-01T01:58:12;5.80;99.90
19085;DHT22;9675;51.538;6.728;2023-02-01T02:00:43;5.80;99.90
19085;DHT22;9675;51.538;6.728;2023-02-01T02:03:15;5.80;99.90
19085;DHT22;9675;51.538;6.728;2023-02-01T02:05:46;5.70;99.90
19085;DHT22;9675;51.538;6.728;2023-02-01T02:08:17;5.80;99.90
19085;DHT22;9675;51.538;6.728;2023-02-01T02:10:48;5.70;99.90
19085;DHT22;9675;51.538;6.728;2023-02-01T02:13:32;5.70;99.90
19085;DHT22;9675;51.538;6.728;2023-02-01T02:16:29;5.70;99.90
19085;DHT22;9675;51.538;6.728;2023-02-01T02:19:46;5.70;99.90
19085;DHT22;9675;51.538;6.728;2023-02-01T02:22:55;5.70;99.90
19085;DHT22;9675;51.538;6.728;2023-02-01T02:26:12;5.70;99.90
19085;DHT22;9675;51.538;6.728;2023-02-01T02:32:21;5.70;99.90
19085;DHT22;9675;51.538;6.728;2023-02-01T02:35:07;5.70;99.90
19085;DHT22;9675;51.538;6.728;2023-02-01T02:37:45;5.70;99.90
19085;DHT22;9675;51.538;6.728;2023-02-01T02:40:25;5.70;99.90
19085;DHT22;9675;51.538;6.728;2023-02-01T02:43:05;5.70;99.90
19085;DHT22;9675;51.538;6.728;2023-02-01T02:46:00;5.70;99.90
19085;DHT22;9675;51.538;6.728;2023-02-01T02:49:01;5.70;99.90
19085;DHT22;9675;51.538;6.728;2023-02-01T02:51:38;5.70;99.90
19085;DHT22;9675;51.538;6.728;2023-02-01T02:54:31;5.70;99.90
19085;DHT22;9675;51.538;6.728;2023-02-01T02:57:16;5.70;99.90
19085;DHT22;9675;51.538;6.728;2023-02-01T03:00:07;5.70;99.90
19085;DHT22;9675;51.538;6.728;2023-02-01T03:02:54;5.70;99.90
19085;DHT22;9675;51.538;6.728;2023-02-01T03:05:41;5.60;99.90
19085;DHT22;9675;51.538;6.728;2023-02-01T03:08:14;5.60;99.90
19085;DHT22;9675;51.538;6.728;2023-02-01T03:10:48;5.60;99.90
19085;DHT22;9675;51.538;6.728;2023-02-01T03:13:28;5.60;99.90
19085;DHT22;9675;51.538;6.728;2023-02-01T03:16:07;5.60;99.90
19085;DHT22;9675;51.538;6.728;2023-02-01T03:18:45;5.70;99.90
19085;DHT22;9675;51.538;6.728;2023-02-01T03:21:23;5.60;99.90
19085;DHT22;9675;51.538;6.728;2023-02-01T03:23:57;5.60;99.90
19085;DHT22;9675;51.538;6.728;2023-02-01T03:26:31;5.60;99.90
19085;DHT22;9675;51.538;6.728;2023-02-01T03:29:08;5.60;99.90
19085;DHT22;9675;51.538;6.728;2023-02-01T03:31:41;5.60;99.90
19085;DHT22;9675;51.538;6.728;2023-02-01T03:34:08;5.60;99.90
19085;DHT22;9675;51.538;6.728;2023-02-01T03:36:40;5.60;99.90
19085;DHT22;9675;51.538;6.728;2023-02-01T03:39:20;5.60;99.90
19085;DHT22;9675;51.538;6.728;2023-02-01T03:41:54;5.60;99.90
19085;DHT22;9675;51.538;6.728;2023-02-01T03:44:27;5.60;99.90
19085;DHT22;9675;51.538;6.728;2023-02-01T03:47:00;5.60;99.90
19085;DHT22;9675;51.538;6.728;2023-02-01T03:49:35;5.60;99.90
19085;DHT22;9675;51.538;6.728;2023-02-01T03:52:06;5.60;99.90
19085;DHT22;9675;51.538;6.728;2023-02-01T03:54:39;5.60;99.90
19085;DHT22;9675;51.538;6.728;2023-02-01T03:57:11;5.60;99.90
19085;DHT22;9675;51.538;6.728;2023-02-01T03:59:41;5.60;99.90
19085;DHT22;9675;51.538;6.728;2023-02-01T04:02:08;5.60;99.90
19085;DHT22;9675;51.538;6.728;2023-02-01T04:04:36;5.60;99.90
19085;DHT22;9675;51.538;6.728;2023-02-01T04:07:03;5.60;99.90
19085;DHT22;9675;51.538;6.728;2023-02-01T04:09:31;5.60;99.90
19085;DHT22;9675;51.538;6.728;2023-02-01T04:11:59;5.60;99.90
19085;DHT22;9675;51.538;6.728;2023-02-01T04:14:27;5.60;99.90
19085;DHT22;9675;51.538;6.728;2023-02-01T04:16:56;5.60;99.90
19085;DHT22;9675;51.538;6.728;2023-02-01T04:19:23;5.60;99.90
19085;DHT22;9675;51.538;6.728;2023-02-01T04:21:56;5.60;99.90
19085;DHT22;9675;51.538;6.728;2023-02-01T04:24:23;5.60;99.90
19085;DHT22;9675;51.538;6.728;2023-02-01T04:26:50;5.60;99.90
19085;DHT22;9675;51.538;6.728;2023-02-01T04:29:19;5.60;99.90
19085;DHT22;9675;51.538;6.728;2023-02-01T04:31:46;5.60;99.90
19085;DHT22;9675;51.538;6.728;2023-02-01T04:34:13;5.60;99.90
19085;DHT22;9675;51.538;6.728;2023-02-01T04:36:40;5.60;99.90
19085;DHT22;9675;51.538;6.728;2023-02-01T04:39:08;5.60;99.90
19085;DHT22;9675;51.538;6.728;2023-02-01T04:41:35;5.60;99.90
19085;DHT22;9675;51.538;6.728;2023-02-01T04:44:03;5.60;99.90
19085;DHT22;9675;51.538;6.728;2023-02-01T04:46:31;5.60;99.90
19085;DHT22;9675;51.538;6.728;2023-02-01T04:48:58;5.60;99.90
19085;DHT22;9675;51.538;6.728;2023-02-01T04:51:25;5.60;99.90
19085;DHT22;9675;51.538;6.728;2023-02-01T04:53:52;5.60;99.90
19085;DHT22;9675;51.538;6.728;2023-02-01T04:56:21;5.60;99.90
19085;DHT22;9675;51.538;6.728;2023-02-01T04:58:48;5.60;99.90
19085;DHT22;9675;51.538;6.728;2023-02-01T05:01:15;5.60;99.90
19085;DHT22;9675;51.538;6.728;2023-02-01T05:03:43;5.60;99.90
19085;DHT22;9675;51.538;6.728;2023-02-01T05:06:10;5.60;99.90
19085;DHT22;9675;51.538;6.728;2023-02-01T05:08:38;5.60;99.90
19085;DHT22;9675;51.538;6.728;2023-02-01T05:11:05;5.60;99.90
19085;DHT22;9675;51.538;6.728;2023-02-01T05:13:32;5.60;99.90
19085;DHT22;9675;51.538;6.728;2023-02-01T05:16:13;5.60;99.90
19085;DHT22;9675;51.538;6.728;2023-02-01T05:18:40;5.60;99.90
19085;DHT22;9675;51.538;6.728;2023-02-01T05:21:09;5.60;99.90
19085;DHT22;9675;51.538;6.728;2023-02-01T05:23:36;5.50;99.90
19085;DHT22;9675;51.538;6.728;2023-02-01T05:26:23;5.50;99.90
19085;DHT22;9675;51.538;6.728;2023-02-01T05:28:51;5.50;99.90
19085;DHT22;9675;51.538;6.728;2023-02-01T05:31:18;5.60;99.90
19085;DHT22;9675;51.538;6.728;2023-02-01T05:33:45;5.50;99.90
19085;DHT22;9675;51.538;6.728;2023-02-01T05:36:15;5.50;99.90
19085;DHT22;9675;51.538;6.728;2023-02-01T05:38:42;5.50;99.90
19085;DHT22;9675;51.538;6.728;2023-02-01T05:41:09;5.50;99.90
19085;DHT22;9675;51.538;6.728;2023-02-01T05:43:36;5.50;99.90
19085;DHT22;9675;51.538;6.728;2023-02-01T05:46:03;5.50;99.90
19085;DHT22;9675;51.538;6.728;2023-02-01T05:48:31;5.50;99.90
19085;DHT22;9675;51.538;6.728;2023-02-01T05:50:58;5.50;99.90
19085;DHT22;9675;51.538;6.728;2023-02-01T05:53:26;5.50;99.90
19085;DHT22;9675;51.538;6.728;2023-02-01T05:55:53;5.50;99.90
19085;DHT22;9675;51.538;6.728;2023-02-01T05:58:20;5.50;99.90
19085;DHT22;9675;51.538;6.728;2023-02-01T06:00:48;5.50;99.90
19085;DHT22;9675;51.538;6.728;2023-02-01T06:03:15;5.50;99.90
19085;DHT22;9675;51.538;6.728;2023-02-01T06:05:43;5.50;99.90
19085;DHT22;9675;51.538;6.728;2023-02-01T06:08:10;5.40;99.90
19085;DHT22;9675;51.538;6.728;2023-02-01T06:10:39;5.50;99.90
19085;DHT22;9675;51.538;6.728;2023-02-01T06:13:06;5.40;99.90
19085;DHT22;9675;51.538;6.728;2023-02-01T06:15:36;5.50;99.90
19085;DHT22;9675;51.538;6.728;2023-02-01T06:18:04;5.50;99.90
19085;DHT22;9675;51.538;6.728;2023-02-01T06:20:34;5.50;99.90
19085;DHT22;9675;51.538;6.728;2023-02-01T06:23:01;5.50;99.90
19085;DHT22;9675;51.538;6.728;2023-02-01T06:25:28;5.50;99.90
19085;DHT22;9675;51.538;6.728;2023-02-01T06:28:00;5.50;99.90
19085;DHT22;9675;51.538;6.728;2023-02-01T06:30:27;5.50;99.90
19085;DHT22;9675;51.538;6.728;2023-02-01T06:32:55;5.50;99.90
19085;DHT22;9675;51.538;6.728;2023-02-01T06:35:21;5.50;99.90
19085;DHT22;9675;51.538;6.728;2023-02-01T06:37:48;5.50;99.90
19085;DHT22;9675;51.538;6.728;2023-02-01T06:40:16;5.50;99.90
19085;DHT22;9675;51.538;6.728;2023-02-01T06:42:43;5.50;99.90
19085;DHT22;9675;51.538;6.728;2023-02-01T06:45:11;5.50;99.90
19085;DHT22;9675;51.538;6.728;2023-02-01T06:47:38;5.50;99.90
19085;DHT22;9675;51.538;6.728;2023-02-01T06:50:06;5.50;99.90
19085;DHT22;9675;51.538;6.728;2023-02-01T06:52:35;5.50;99.90
19085;DHT22;9675;51.538;6.728;2023-02-01T06:55:02;5.50;99.90
19085;DHT22;9675;51.538;6.728;2023-02-01T06:57:30;5.60;99.90
19085;DHT22;9675;51.538;6.728;2023-02-01T06:59:58;5.60;99.90
19085;DHT22;9675;51.538;6.728;2023-02-01T07:02:26;5.60;99.90
19085;DHT22;9675;51.538;6.728;2023-02-01T07:04:53;5.60;99.90
19085;DHT22;9675;51.538;6.728;2023-02-01T07:07:21;5.50;99.90
19085;DHT22;9675;51.538;6.728;2023-02-01T07:09:48;5.60;99.90
19085;DHT22;9675;51.538;6.728;2023-02-01T07:12:15;5.60;99.90
19085;DHT22;9675;51.538;6.728;2023-02-01T07:14:42;5.60;99.90
19085;DHT22;9675;51.538;6.728;2023-02-01T07:17:09;5.60;99.90
19085;DHT22;9675;51.538;6.728;2023-02-01T07:19:38;5.60;99.90
19085;DHT22;9675;51.538;6.728;2023-02-01T07:22:05;5.60;99.90
19085;DHT22;9675;51.538;6.728;2023-02-01T07:24:33;5.60;99.90
19085;DHT22;9675;51.538;6.728;2023-02-01T07:27:00;5.60;99.90
19085;DHT22;9675;51.538;6.728;2023-02-01T07:29:27;5.70;99.90
19085;DHT22;9675;51.538;6.728;2023-02-01T07:31:54;5.60;99.90
19085;DHT22;9675;51.538;6.728;2023-02-01T07:34:21;5.60;99.90
19085;DHT22;9675;51.538;6.728;2023-02-01T07:36:52;5.60;99.90
19085;DHT22;9675;51.538;6.728;2023-02-01T07:39:19;5.70;99.90
19085;DHT22;9675;51.538;6.728;2023-02-01T07:41:46;5.70;99.90
19085;DHT22;9675;51.538;6.728;2023-02-01T07:44:13;5.70;99.90
19085;DHT22;9675;51.538;6.728;2023-02-01T07:46:41;5.70;99.90
19085;DHT22;9675;51.538;6.728;2023-02-01T07:49:08;5.70;99.90
19085;DHT22;9675;51.538;6.728;2023-02-01T07:51:36;5.70;99.90
19085;DHT22;9675;51.538;6.728;2023-02-01T07:54:04;5.70;99.90
19085;DHT22;9675;51.538;6.728;2023-02-01T07:56:31;5.70;99.90
19085;DHT22;9675;51.538;6.728;2023-02-01T07:58:59;5.70;99.90
19085;DHT22;9675;51.538;6.728;2023-02-01T08:01:28;5.70;99.90
19085;DHT22;9675;51.538;6.728;2023-02-01T08:03:56;5.70;99.90
19085;DHT22;9675;51.538;6.728;2023-02-01T08:06:29;5.70;99.90
19085;DHT22;9675;51.538;6.728;2023-02-01T08:08:58;5.70;99.90
19085;DHT22;9675;51.538;6.728;2023-02-01T08:11:27;5.70;99.90
19085;DHT22;9675;51.538;6.728;2023-02-01T08:13:54;5.70;99.90
19085;DHT22;9675;51.538;6.728;2023-02-01T08:16:23;5.70;99.90
19085;DHT22;9675;51.538;6.728;2023-02-01T08:18:50;5.70;99.90
19085;DHT22;9675;51.538;6.728;2023-02-01T08:21:19;5.70;99.90
19085;DHT22;9675;51.538;6.728;2023-02-01T08:23:47;5.70;99.90
19085;DHT22;9675;51.538;6.728;2023-02-01T08:26:16;5.70;99.90
19085;DHT22;9675;51.538;6.728;2023-02-01T08:28:49;5.80;99.90
19085;DHT22;9675;51.538;6.728;2023-02-01T08:31:19;5.70;99.90
19085;DHT22;9675;51.538;6.728;2023-02-01T08:33:50;5.80;99.90
19085;DHT22;9675;51.538;6.728;2023-02-01T08:36:19;5.70;99.90
19085;DHT22;9675;51.538;6.728;2023-02-01T08:38:47;5.80;99.90
19085;DHT22;9675;51.538;6.728;2023-02-01T08:41:15;5.80;99.90
19085;DHT22;9675;51.538;6.728;2023-02-01T08:43:46;5.80;99.90
19085;DHT22;9675;51.538;6.728;2023-02-01T08:46:14;5.80;99.90
19085;DHT22;9675;51.538;6.728;2023-02-01T08:48:42;5.80;99.90
19085;DHT22;9675;51.538;6.728;2023-02-01T08:51:12;5.80;99.90
19085;DHT22;9675;51.538;6.728;2023-02-01T08:53:40;5.80;99.90
19085;DHT22;9675;51.538;6.728;2023-02-01T08:56:09;5.80;99.90
19085;DHT22;9675;51.538;6.728;2023-02-01T08:58:37;5.90;99.90
19085;DHT22;9675;51.538;6.728;2023-02-01T09:01:07;5.90;99.90
19085;DHT22;9675;51.538;6.728;2023-02-01T09:03:36;5.90;99.90
19085;DHT22;9675;51.538;6.728;2023-02-01T09:06:04;5.90;99.90
19085;DHT22;9675;51.538;6.728;2023-02-01T09:08:33;5.90;99.90
19085;DHT22;9675;51.538;6.728;2023-02-01T09:11:02;5.90;99.90
19085;DHT22;9675;51.538;6.728;2023-02-01T09:13:31;6.00;99.90
19085;DHT22;9675;51.538;6.728;2023-02-01T09:15:59;6.00;99.90
19085;DHT22;9675;51.538;6.728;2023-02-01T09:18:29;6.00;99.90
19085;DHT22;9675;51.538;6.728;2023-02-01T09:20:56;6.00;99.90
19085;DHT22;9675;51.538;6.728;2023-02-01T09:23:23;6.00;99.90
19085;DHT22;9675;51.538;6.728;2023-02-01T09:25:50;6.00;99.90
19085;DHT22;9675;51.538;6.728;2023-02-01T09:28:19;6.00;99.90
19085;DHT22;9675;51.538;6.728;2023-02-01T09:30:46;6.00;99.90
19085;DHT22;9675;51.538;6.728;2023-02-01T09:33:14;6.10;99.90
19085;DHT22;9675;51.538;6.728;2023-02-01T09:35:44;6.00;99.90
19085;DHT22;9675;51.538;6.728;2023-02-01T09:38:11;6.10;99.90
19085;DHT22;9675;51.538;6.728;2023-02-01T09:40:42;6.10;99.90
19085;DHT22;9675;51.538;6.728;2023-02-01T09:43:21;6.10;99.90
19085;DHT22;9675;51.538;6.728;2023-02-01T09:46:06;6.10;99.90
19085;DHT22;9675;51.538;6.728;2023-02-01T09:48:46;6.10;99.90
19085;DHT22;9675;51.538;6.728;2023-02-01T09:51:21;6.20;99.90
19085;DHT22;9675;51.538;6.728;2023-02-01T09:53:58;6.10;99.90
19085;DHT22;9675;51.538;6.728;2023-02-01T09:56:35;6.20;99.90
19085;DHT22;9675;51.538;6.728;2023-02-01T09:59:14;6.20;99.90
19085;DHT22;9675;51.538;6.728;2023-02-01T10:01:50;6.20;99.90
19085;DHT22;9675;51.538;6.728;2023-02-01T10:04:17;6.20;99.90
19085;DHT22;9675;51.538;6.728;2023-02-01T10:07:02;6.20;99.90
19085;DHT22;9675;51.538;6.728;2023-02-01T10:09:48;6.30;99.90
19085;DHT22;9675;51.538;6.728;2023-02-01T10:12:49;6.30;99.90
19085;DHT22;9675;51.538;6.728;2023-02-01T10:15:44;6.30;99.90
19085;DHT22;9675;51.538;6.728;2023-02-01T10:18:37;6.30;99.90
19085;DHT22;9675;51.538;6.728;2023-02-01T10:21:28;6.40;99.90
19085;DHT22;9675;51.538;6.728;2023-02-01T10:27:16;6.40;99.90
19085;DHT22;9675;51.538;6.728;2023-02-01T10:29:49;6.40;99.90
19085;DHT22;9675;51.538;6.728;2023-02-01T10:32:24;6.50;99.90
19085;DHT22;9675;51.538;6.728;2023-02-01T10:34:58;6.50;99.90
19085;DHT22;9675;51.538;6.728;2023-02-01T10:37:31;6.50;99.90
19085;DHT22;9675;51.538;6.728;2023-02-01T10:40:12;6.60;99.90
19085;DHT22;9675;51.538;6.728;2023-02-01T10:42:45;6.50;99.90
19085;DHT22;9675;51.538;6.728;2023-02-01T10:45:15;6.50;99.90
19085;DHT22;9675;51.538;6.728;2023-02-01T10:47:45;6.60;99.90
19085;DHT22;9675;51.538;6.728;2023-02-01T10:50:17;6.60;99.90
19085;DHT22;9675;51.538;6.728;2023-02-01T10:52:54;6.60;99.90
19085;DHT22;9675;51.538;6.728;2023-02-01T10:55:39;6.70;99.90
19085;DHT22;9675;51.538;6.728;2023-02-01T10:58:16;6.70;99.90
19085;DHT22;9675;51.538;6.728;2023-02-01T11:00:47;6.70;99.90
19085;DHT22;9675;51.538;6.728;2023-02-01T11:03:31;6.70;99.90
19085;DHT22;9675;51.538;6.728;2023-02-01T11:06:19;6.70;99.90
19085;DHT22;9675;51.538;6.728;2023-02-01T11:08:53;6.80;99.90
19085;DHT22;9675;51.538;6.728;2023-02-01T11:11:23;6.80;99.90
19085;DHT22;9675;51.538;6.728;2023-02-01T11:13:54;6.80;99.90
19085;DHT22;9675;51.538;6.728;2023-02-01T11:16:29;6.80;99.90
19085;DHT22;9675;51.538;6.728;2023-02-01T11:19:00;6.90;99.90
19085;DHT22;9675;51.538;6.728;2023-02-01T11:21:28;6.90;99.90
19085;DHT22;9675;51.538;6.728;2023-02-01T11:24:00;6.90;99.90
19085;DHT22;9675;51.538;6.728;2023-02-01T11:26:31;6.90;99.90
19085;DHT22;9675;51.538;6.728;2023-02-01T11:29:03;6.90;99.90
19085;DHT22;9675;51.538;6.728;2023-02-01T11:31:34;6.90;99.90
19085;DHT22;9675;51.538;6.728;2023-02-01T11:34:06;7.00;99.90
19085;DHT22;9675;51.538;6.728;2023-02-01T11:36:39;7.00;99.90
19085;DHT22;9675;51.538;6.728;2023-02-01T11:39:19;7.00;99.90
19085;DHT22;9675;51.538;6.728;2023-02-01T11:42:01;7.00;99.90
19085;DHT22;9675;51.538;6.728;2023-02-01T11:44:34;7.00;99.90
19085;DHT22;9675;51.538;6.728;2023-02-01T11:47:23;7.00;99.90
19085;DHT22;9675;51.538;6.728;2023-02-01T11:49:53;7.00;99.90
19085;DHT22;9675;51.538;6.728;2023-02-01T11:52:41;7.00;99.90
19085;DHT22;9675;51.538;6.728;2023-02-01T11:55:39;7.00;99.90
19085;DHT22;9675;51.538;6.728;2023-02-01T11:58:26;7.00;99.90
19085;DHT22;9675;51.538;6.728;2023-02-01T12:01:14;7.10;99.90
19085;DHT22;9675;51.538;6.728;2023-02-01T12:07:20;7.00;99.90
19085;DHT22;9675;51.538;6.728;2023-02-01T12:10:00;7.00;99.90
19085;DHT22;9675;51.538;6.728;2023-02-01T12:12:41;7.00;99.90
19085;DHT22;9675;51.538;6.728;2023-02-01T12:15:30;7.10;99.90
19085;DHT22;9675;51.538;6.728;2023-02-01T12:18:38;7.00;99.90
19085;DHT22;9675;51.538;6.728;2023-02-01T12:21:26;7.10;99.90
19085;DHT22;9675;51.538;6.728;2023-02-01T12:24:18;7.10;99.90
19085;DHT22;9675;51.538;6.728;2023-02-01T12:27:12;7.10;99.90
19085;DHT22;9675;51.538;6.728;2023-02-01T12:30:02;7.10;99.90
19085;DHT22;9675;51.538;6.728;2023-02-01T12:32:53;7.10;99.90
19085;DHT22;9675;51.538;6.728;2023-02-01T12:35:44;7.20;99.90
19085;DHT22;9675;51.538;6.728;2023-02-01T12:41:29;7.20;99.90
19085;DHT22;9675;51.538;6.728;2023-02-01T12:44:24;7.20;99.90
19085;DHT22;9675;51.538;6.728;2023-02-01T12:47:00;7.30;99.90
19085;DHT22;9675;51.538;6.728;2023-02-01T12:49:45;7.30;99.90
19085;DHT22;9675;51.538;6.728;2023-02-01T12:52:20;7.20;99.90
19085;DHT22;9675;51.538;6.728;2023-02-01T12:54:57;7.30;99.90
19085;DHT22;9675;51.538;6.728;2023-02-01T12:57:31;7.30;99.90
19085;DHT22;9675;51.538;6.728;2023-02-01T13:00:12;7.30;99.90
19085;DHT22;9675;51.538;6.728;2023-02-01T13:02:54;7.30;99.90
19085;DHT22;9675;51.538;6.728;2023-02-01T13:05:34;7.30;99.90
19085;DHT22;9675;51.538;6.728;2023-02-01T13:08:12;7.30;99.90
19085;DHT22;9675;51.538;6.728;2023-02-01T13:10:46;7.30;99.90
19085;DHT22;9675;51.538;6.728;2023-02-01T13:13:22;7.30;99.90
19085;DHT22;9675;51.538;6.728;2023-02-01T13:15:58;7.30;99.90
19085;DHT22;9675;51.538;6.728;2023-02-01T13:18:36;7.40;99.90
19085;DHT22;9675;51.538;6.728;2023-02-01T13:21:10;7.40;99.90
19085;DHT22;9675;51.538;6.728;2023-02-01T13:23:45;7.40;99.90
19085;DHT22;9675;51.538;6.728;2023-02-01T13:26:14;7.40;99.90
19085;DHT22;9675;51.538;6.728;2023-02-01T13:28:45;7.40;99.90
19085;DHT22;9675;51.538;6.728;2023-02-01T13:31:35;7.40;99.90
19085;DHT22;9675;51.538;6.728;2023-02-01T13:34:53;7.40;99.90
19085;DHT22;9675;51.538;6.728;2023-02-01T13:38:01;7.40;99.90
19085;DHT22;9675;51.538;6.728;2023-02-01T13:40:41;7.50;99.90
19085;DHT22;9675;51.538;6.728;2023-02-01T13:43:13;7.50;99.90
19085;DHT22;9675;51.538;6.728;2023-02-01T13:45:47;7.50;99.90
19085;DHT22;9675;51.538;6.728;2023-02-01T13:48:23;7.50;99.90
19085;DHT22;9675;51.538;6.728;2023-02-01T13:50:56;7.50;99.90
19085;DHT22;9675;51.538;6.728;2023-02-01T13:53:29;7.50;99.90
19085;DHT22;9675;51.538;6.728;2023-02-01T13:55:59;7.50;99.90
19085;DHT22;9675;51.538;6.728;2023-02-01T13:58:33;7.50;99.90
19085;DHT22;9675;51.538;6.728;2023-02-01T14:07:21;7.60;99.90
19085;DHT22;9675;51.538;6.728;2023-02-01T14:09:50;7.60;99.90
19085;DHT22;9675;51.538;6.728;2023-02-01T14:12:45;7.60;99.90
19085;DHT22;9675;51.538;6.728;2023-02-01T14:15:23;7.60;99.90
19085;DHT22;9675;51.538;6.728;2023-02-01T14:17:52;7.60;99.90
19085;DHT22;9675;51.538;6.728;2023-02-01T14:20:45;7.60;99.90
19085;DHT22;9675;51.538;6.728;2023-02-01T14:23:23;7.60;99.90
19085;DHT22;9675;51.538;6.728;2023-02-01T14:26:10;7.70;99.90
19085;DHT22;9675;51.538;6.728;2023-02-01T14:28:46;7.70;99.90
19085;DHT22;9675;51.538;6.728;2023-02-01T14:31:41;7.70;99.90
19085;DHT22;9675;51.538;6.728;2023-02-01T14:34:22;7.70;99.90
19085;DHT22;9675;51.538;6.728;2023-02-01T14:36:58;7.70;99.90
19085;DHT22;9675;51.538;6.728;2023-02-01T14:39:36;7.70;99.90
19085;DHT22;9675;51.538;6.728;2023-02-01T14:42:24;7.70;99.90
19085;DHT22;9675;51.538;6.728;2023-02-01T14:44:54;7.80;99.90
19085;DHT22;9675;51.538;6.728;2023-02-01T14:47:31;7.80;99.90
19085;DHT22;9675;51.538;6.728;2023-02-01T14:50:18;7.80;99.90
19085;DHT22;9675;51.538;6.728;2023-02-01T14:53:04;7.80;99.90
19085;DHT22;9675;51.538;6.728;2023-02-01T14:55:42;7.80;99.90
19085;DHT22;9675;51.538;6.728;2023-02-01T14:58:18;7.80;99.90
19085;DHT22;9675;51.538;6.728;2023-02-01T15:00:57;7.80;99.90
19085;DHT22;9675;51.538;6.728;2023-02-01T15:03:47;7.80;99.90
19085;DHT22;9675;51.538;6.728;2023-02-01T15:06:38;7.80;99.90
19085;DHT22;9675;51.538;6.728;2023-02-01T15:09:14;7.80;99.90
19085;DHT22;9675;51.538;6.728;2023-02-01T15:11:57;7.80;99.90
19085;DHT22;9675;51.538;6.728;2023-02-01T15:14:28;7.80;99.90
19085;DHT22;9675;51.538;6.728;2023-02-01T15:16:57;7.80;99.90
19085;DHT22;9675;51.538;6.728;2023-02-01T15:19:28;7.80;99.90
19085;DHT22;9675;51.538;6.728;2023-02-01T15:21:58;7.80;99.90
19085;DHT22;9675;51.538;6.728;2023-02-01T15:24:26;7.80;99.90
19085;DHT22;9675;51.538;6.728;2023-02-01T15:26:58;7.80;99.90
19085;DHT22;9675;51.538;6.728;2023-02-01T15:29:31;7.90;99.90
19085;DHT22;9675;51.538;6.728;2023-02-01T15:31:59;7.80;99.90
19085;DHT22;9675;51.538;6.728;2023-02-01T15:34:44;7.80;99.90
19085;DHT22;9675;51.538;6.728;2023-02-01T15:37:13;7.80;99.90
19085;DHT22;9675;51.538;6.728;2023-02-01T15:40:03;7.80;99.90
19085;DHT22;9675;51.538;6.728;2023-02-01T15:42:33;7.80;99.90
19085;DHT22;9675;51.538;6.728;2023-02-01T15:45:02;7.80;99.90
19085;DHT22;9675;51.538;6.728;2023-02-01T15:47:31;7.80;99.90
19085;DHT22;9675;51.538;6.728;2023-02-01T15:50:00;8.00;99.90
19085;DHT22;9675;51.538;6.728;2023-02-01T15:52:34;8.20;99.90
19085;DHT22;9675;51.538;6.728;2023-02-01T15:55:05;8.40;99.90
19085;DHT22;9675;51.538;6.728;2023-02-01T15:57:43;8.70;99.90
19085;DHT22;9675;51.538;6.728;2023-02-01T16:00:22;8.90;99.90
19085;DHT22;9675;51.538;6.728;2023-02-01T16:02:54;9.10;99.90
19085;DHT22;9675;51.538;6.728;2023-02-01T16:05:31;9.30;99.90
19085;DHT22;9675;51.538;6.728;2023-02-01T16:08:04;9.30;99.90
19085;DHT22;9675;51.538;6.728;2023-02-01T16:10:39;9.40;99.90
19085;DHT22;9675;51.538;6.728;2023-02-01T16:13:08;9.50;99.90
19085;DHT22;9675;51.538;6.728;2023-02-01T16:15:37;9.60;99.90
19085;DHT22;9675;51.538;6.728;2023-02-01T16:18:05;9.70;99.90
19085;DHT22;9675;51.538;6.728;2023-02-01T16:20:34;9.70;99.90
19085;DHT22;9675;51.538;6.728;2023-02-01T16:23:01;9.70;99.90
19085;DHT22;9675;51.538;6.728;2023-02-01T16:25:29;9.70;99.90
19085;DHT22;9675;51.538;6.728;2023-02-01T16:28:05;9.70;99.90
19085;DHT22;9675;51.538;6.728;2023-02-01T16:30:48;9.70;99.90
19085;DHT22;9675;51.538;6.728;2023-02-01T16:33:18;9.70;99.90
19085;DHT22;9675;51.538;6.728;2023-02-01T16:35:49;9.70;99.90
19085;DHT22;9675;51.538;6.728;2023-02-01T16:38:19;9.70;99.90
19085;DHT22;9675;51.538;6.728;2023-02-01T16:40:49;9.70;99.90
19085;DHT22;9675;51.538;6.728;2023-02-01T16:43:18;9.70;99.90
19085;DHT22;9675;51.538;6.728;2023-02-01T16:45:49;9.70;99.90
19085;DHT22;9675;51.538;6.728;2023-02-01T16:48:22;9.80;99.90
19085;DHT22;9675;51.538;6.728;2023-02-01T16:50:53;9.80;99.90
19085;DHT22;9675;51.538;6.728;2023-02-01T16:53:23;9.80;99.90
19085;DHT22;9675;51.538;6.728;2023-02-01T16:55:53;9.70;99.90
19085;DHT22;9675;51.538;6.728;2023-02-01T16:58:23;9.70;99.90
19085;DHT22;9675;51.538;6.728;2023-02-01T17:00:52;9.70;99.90
19085;DHT22;9675;51.538;6.728;2023-02-01T17:03:21;9.80;99.90